KAFF/AFF METAR and TAF weather

Enter ICAO airport designator
Station Type Date Time Source
KAFF METAR 2020/07/11 15:58 UTC NOAA

KAFF 111558Z AUTO 01014KT 10SM CLR 24/08 A3039 RMK AO2 SLP190 T02400076


Station Type Date Time Source
KAFF Decoded METAR 2020/07/11 15:58 UTC NOAA

Air Force Academy, CO, United States (KAFF) 38-58N 104-49W 1999M
Jul 11, 2020 - 11:58 AM EDT / 2020.07.11 1558 UTC
Wind: from the N (010 degrees) at 16 MPH (14 KT):0
Visibility: 10 mile(s):0
Sky conditions: clear
Temperature: 75.2 F (24.0 C)
Dew Point: 45.7 F (7.6 C)
Relative Humidity: 34%
Pressure (altimeter): 30.39 in. Hg (1029 hPa)
ob: KAFF 111558Z AUTO 01014KT 10SM CLR 24/08 A3039 RMK AO2 SLP190 T02400076
cycle: 16

Station Type Date Time Source
KAFF TAF 2020/07/10 19:09 UTC NOAA

TAF TAF KAFF 101902Z 1019/1201 15009KT 9999 FEW150 QNH3023INS WND 110V190
BECMG 1019/1020 16012G20KT 9999 FEW150 510009 QNH3023INS
BECMG 1101/1102 15009KT 9999 FEW220 QNH3027INS WND 35009KT AFT 1105
BECMG 1109/1110 35015G25KT 9999 FEW200 520009 QNH3035INS
BECMG 1114/1115 34012KT 9999 FEW200 510009 QNH3037INS
BECMG 1119/1120 16012G18KT 9999 FEW200 510009 QNH3037INS TX34/1022Z TN13/1111Z LAST NO
AMDS AFT 1020 NEXT 1311

Example: see airport list